Franklin Hills, Indiana
Current Conditions -  °F | °C
As of 2:55 PM on Saturday 25 Oct 2014 (Local Time) from KHNB Reporting Station
Clear Clear  
Wind Chill: 75°   Ceiling: Unl
Heat Index: 75°   Visibility: 10mi
Dew Point: 61°   Wind: 7mph
Humidity: 61%   Direction: 320°NW
Pressure: 29.98"   Gusts: 17mph
Location:  38.0217°N, 86.7099°W
Report Text: KHNB 251955Z AUTO 32006G15KT 10SM CLR 24/16 A2998 RMK AO1
Loading
Personal Weather Stations






























Interactive Weather Map New forecast layout! Learn more

10-Day Weather Forecast

Advertisements
Track Severe Weather on mobile